createdAt,value
2022-12-23T00:00:20.796Z,59.54
2022-12-23T00:01:25.095Z,59.64
2022-12-23T00:02:29.883Z,59.89
2022-12-23T00:03:34.869Z,60.4
2022-12-23T00:04:39.172Z,60.49
2022-12-23T00:05:43.400Z,60.61
2022-12-23T00:06:47.611Z,60.64
2022-12-23T00:07:51.835Z,60.88
2022-12-23T00:08:56.047Z,60.99
2022-12-23T00:10:00.300Z,61.08
2022-12-23T00:11:04.607Z,60.34
2022-12-23T00:12:08.845Z,60.19
2022-12-23T00:13:13.091Z,60.85
2022-12-23T00:14:23.902Z,60.48
2022-12-23T00:15:28.161Z,60.25
2022-12-23T00:16:32.622Z,60.56
2022-12-23T00:17:36.880Z,60.55
2022-12-23T00:18:41.966Z,60.38
2022-12-23T00:19:46.349Z,60.34
2022-12-23T00:20:50.599Z,60.22
2022-12-23T00:21:54.854Z,60.38
2022-12-23T00:22:59.117Z,60.29
2022-12-23T00:24:03.324Z,60.16
2022-12-23T00:25:07.539Z,60.48
2022-12-23T00:26:11.794Z,60.6
2022-12-23T00:27:16.096Z,60.54
2022-12-23T00:28:20.353Z,60.75
2022-12-23T00:29:24.555Z,60.76
2022-12-23T00:30:28.770Z,60.83
2022-12-23T00:31:33.449Z,60.69
2022-12-23T00:32:37.691Z,61.06
2022-12-23T00:33:41.947Z,61.65
2022-12-23T00:34:46.152Z,61.3
2022-12-23T00:35:50.634Z,61.64
2022-12-23T00:36:54.912Z,61.51
2022-12-23T00:37:59.140Z,61.7
2022-12-23T00:39:03.370Z,61
2022-12-23T00:40:08.966Z,61.86
2022-12-23T00:41:13.194Z,61.24
2022-12-23T00:42:17.494Z,61.29
2022-12-23T00:43:21.726Z,61.71
2022-12-23T00:44:25.951Z,61.24
2022-12-23T00:45:30.315Z,61.93
2022-12-23T00:46:34.744Z,61.14
2022-12-23T00:47:39.003Z,61.57
2022-12-23T00:48:43.225Z,61.76
2022-12-23T00:49:47.494Z,62.06
2022-12-23T00:50:51.733Z,61.17
2022-12-23T00:51:55.989Z,61.44
2022-12-23T00:53:00.279Z,61.87
2022-12-23T00:54:04.500Z,62.18
2022-12-23T00:55:08.733Z,62.25
2022-12-23T00:56:12.958Z,61.52
2022-12-23T00:57:17.254Z,61.95
2022-12-23T00:58:21.536Z,62.11
2022-12-23T00:59:25.782Z,62.13
2022-12-23T01:00:30.172Z,61.9
2022-12-23T01:01:34.887Z,62.36
2022-12-23T01:02:39.517Z,62.37
2022-12-23T01:03:43.886Z,62.04
2022-12-23T01:04:48.094Z,61.83
2022-12-23T01:05:52.337Z,61.8
2022-12-23T01:06:56.572Z,61.78
2022-12-23T01:08:00.807Z,61.85
2022-12-23T01:09:05.046Z,61.87
2022-12-23T01:10:09.294Z,61.71
2022-12-23T01:11:13.525Z,61.67
2022-12-23T01:12:17.781Z,62.37
2022-12-23T01:13:22.048Z,62.4
2022-12-23T01:14:26.296Z,62.45
2022-12-23T01:15:30.508Z,62.26
2022-12-23T01:16:34.902Z,62.33
2022-12-23T01:17:39.186Z,62.83
2022-12-23T01:18:43.436Z,63.03
2022-12-23T01:19:47.682Z,62.91
2022-12-23T01:20:51.940Z,63.13
2022-12-23T01:21:56.204Z,63.19
2022-12-23T01:23:00.467Z,62.91
2022-12-23T01:24:04.732Z,62.79
2022-12-23T01:25:08.974Z,62.81
2022-12-23T01:26:13.272Z,62.43
2022-12-23T01:27:17.484Z,62.92
2022-12-23T01:28:21.731Z,63.02
2022-12-23T01:29:25.953Z,63.34
2022-12-23T01:30:30.208Z,63.07
2022-12-23T01:31:34.789Z,63.25
2022-12-23T01:32:39.061Z,63.31
2022-12-23T01:33:43.262Z,63.24
2022-12-23T01:34:47.519Z,63.22
2022-12-23T01:35:51.795Z,62.23
2022-12-23T01:36:56.017Z,63.05
2022-12-23T01:38:00.249Z,62.87
2022-12-23T01:39:04.472Z,62.82
2022-12-23T01:40:08.676Z,63.04
2022-12-23T01:41:12.965Z,63.25
2022-12-23T01:42:17.241Z,63.32
2022-12-23T01:43:21.463Z,63.44
2022-12-23T01:44:25.695Z,63.54
2022-12-23T01:45:30.313Z,63.52
2022-12-23T01:46:34.854Z,63.38
2022-12-23T01:47:39.119Z,63.05
2022-12-23T01:48:43.362Z,63.38
2022-12-23T01:49:47.591Z,62.38
2022-12-23T01:50:51.852Z,63.18
2022-12-23T01:51:56.118Z,62.85
2022-12-23T01:53:09.159Z,62.62
2022-12-23T01:54:13.404Z,63.35
2022-12-23T01:55:17.622Z,63.19
2022-12-23T01:56:21.921Z,63.51
2022-12-23T01:57:26.144Z,62.59
2022-12-23T01:58:30.404Z,63.26
2022-12-23T01:59:34.645Z,63.44
2022-12-23T02:00:38.896Z,63.29
2022-12-23T02:01:43.829Z,63.16
2022-12-23T02:02:48.608Z,63.38
2022-12-23T02:03:52.932Z,63.7
2022-12-23T02:04:57.145Z,63.35
2022-12-23T02:06:01.364Z,63.23
2022-12-23T02:07:05.592Z,63.3
2022-12-23T02:08:09.885Z,63.34
2022-12-23T02:09:14.093Z,63.5
2022-12-23T02:10:18.326Z,63.56
2022-12-23T02:11:22.558Z,63.6
2022-12-23T02:12:26.814Z,63.5
2022-12-23T02:13:31.073Z,63.58
2022-12-23T02:14:35.321Z,63.29
2022-12-23T02:15:39.590Z,63.11
2022-12-23T02:16:43.989Z,62.66
2022-12-23T02:17:48.429Z,63.38
2022-12-23T02:18:52.658Z,63.3
2022-12-23T02:19:56.952Z,63.27
2022-12-23T02:21:01.180Z,63.41
2022-12-23T02:22:05.593Z,63.17
2022-12-23T02:23:10.044Z,63.55
2022-12-23T02:24:14.302Z,63.18
2022-12-23T02:25:18.545Z,63.58
2022-12-23T02:26:22.760Z,63.37
2022-12-23T02:27:26.994Z,63.35
2022-12-23T02:28:31.206Z,63.43
2022-12-23T02:29:35.554Z,63.52
2022-12-23T02:30:40.069Z,63.51
2022-12-23T02:31:44.552Z,63.51
2022-12-23T02:32:48.814Z,63.09
2022-12-23T02:33:54.101Z,63.31
2022-12-23T02:34:58.330Z,63.32
2022-12-23T02:36:02.597Z,63.46
2022-12-23T02:37:06.839Z,63.52
2022-12-23T02:38:11.126Z,63.39
2022-12-23T02:39:15.374Z,63.44
2022-12-23T02:40:19.688Z,63.39
2022-12-23T02:41:26.661Z,63.67
2022-12-23T02:42:30.914Z,63.52
2022-12-23T02:43:35.165Z,63.66
2022-12-23T02:44:39.378Z,63.54
2022-12-23T02:45:43.745Z,63.55
2022-12-23T02:46:48.587Z,63.53
2022-12-23T02:47:52.834Z,62.99
2022-12-23T02:48:59.422Z,63.45
2022-12-23T02:50:03.694Z,63.41
2022-12-23T02:51:07.946Z,63.56
2022-12-23T02:52:12.175Z,63.39
2022-12-23T02:53:16.393Z,63.59
2022-12-23T02:54:20.653Z,63.51
2022-12-23T02:55:24.886Z,63.72
2022-12-23T02:56:29.183Z,63.64
2022-12-23T02:57:33.463Z,63.45
2022-12-23T02:58:37.671Z,63.5
2022-12-23T02:59:41.923Z,63.53
2022-12-23T03:00:46.165Z,63.23
2022-12-23T03:01:50.780Z,63.2
2022-12-23T03:02:55.549Z,63.59
2022-12-23T03:04:00.231Z,63.21
2022-12-23T03:05:04.479Z,63.4
2022-12-23T03:06:08.699Z,63.51
2022-12-23T03:07:19.858Z,63.4
2022-12-23T03:08:24.093Z,63.55
2022-12-23T03:09:28.369Z,63.57
2022-12-23T03:10:32.655Z,63.25
2022-12-23T03:11:37.060Z,63.67
2022-12-23T03:12:41.279Z,63.51
2022-12-23T03:13:45.492Z,63.5
2022-12-23T03:14:49.735Z,63.47
2022-12-23T03:15:54.155Z,63.75
2022-12-23T03:16:58.398Z,62.71
2022-12-23T03:18:02.624Z,62.48
2022-12-23T03:19:06.878Z,63.37
2022-12-23T03:20:11.121Z,62.75
2022-12-23T03:21:15.332Z,63.5
2022-12-23T03:22:19.558Z,63.36
2022-12-23T03:23:23.875Z,63.55
2022-12-23T03:24:28.102Z,63.26
2022-12-23T03:25:32.353Z,63.5
2022-12-23T03:26:36.597Z,63.08
2022-12-23T03:27:40.850Z,63.41
2022-12-23T03:28:45.108Z,63.57
2022-12-23T03:29:49.331Z,63.08
2022-12-23T03:30:53.748Z,62.57
2022-12-23T03:31:57.996Z,63.4
2022-12-23T03:33:02.249Z,62.56
2022-12-23T03:34:06.478Z,62.6
2022-12-23T03:35:10.793Z,63.29
2022-12-23T03:36:15.049Z,63.65
2022-12-23T03:37:19.276Z,63.57
2022-12-23T03:38:23.494Z,63.35
2022-12-23T03:39:27.706Z,63.66
2022-12-23T03:40:31.971Z,63.08
2022-12-23T03:41:36.236Z,63.52
2022-12-23T03:42:43.495Z,63.72
2022-12-23T03:43:52.960Z,63.51
2022-12-23T03:45:41.829Z,63.69
2022-12-23T03:46:46.458Z,63.7
2022-12-23T03:47:50.794Z,63.06
2022-12-23T03:48:55.068Z,62.91
2022-12-23T03:49:59.299Z,63.41
2022-12-23T03:51:03.529Z,63.42
2022-12-23T03:52:07.737Z,63.63
2022-12-23T03:53:11.998Z,63.61
2022-12-23T03:54:17.322Z,63.57
2022-12-23T03:55:21.540Z,63.95
2022-12-23T03:56:25.775Z,63.87
2022-12-23T03:57:29.986Z,63.24
2022-12-23T03:58:34.219Z,63.4
2022-12-23T03:59:38.436Z,62.92
2022-12-23T04:00:42.735Z,63.46
2022-12-23T04:01:48.500Z,63.52
2022-12-23T04:02:53.425Z,63.02
2022-12-23T04:03:58.136Z,63.28
2022-12-23T04:05:02.425Z,63.75
2022-12-23T04:06:06.631Z,63.42
2022-12-23T04:07:10.871Z,63.68
2022-12-23T04:08:15.084Z,63.8
2022-12-23T04:09:24.157Z,63.67
2022-12-23T04:10:28.392Z,63.6
2022-12-23T04:11:32.654Z,63.32
2022-12-23T04:12:36.899Z,63.54
2022-12-23T04:13:41.196Z,63.92
2022-12-23T04:14:45.417Z,63.9
2022-12-23T04:15:49.858Z,63.27
2022-12-23T04:16:54.124Z,63.72
2022-12-23T04:17:58.365Z,63.74
2022-12-23T04:19:02.630Z,63.61
2022-12-23T04:20:06.839Z,64.06
2022-12-23T04:21:11.247Z,64.01
2022-12-23T04:22:15.601Z,63.82
2022-12-23T04:23:19.825Z,63.75
2022-12-23T04:24:24.017Z,63.75
2022-12-23T04:25:28.226Z,64.06
2022-12-23T04:26:32.488Z,63.22
2022-12-23T04:27:36.695Z,64.01
2022-12-23T04:28:40.898Z,64.04
2022-12-23T04:29:45.112Z,63.88
2022-12-23T04:30:49.407Z,64.05
2022-12-23T04:31:54.068Z,64.21
2022-12-23T04:32:58.303Z,64.05
2022-12-23T04:34:02.529Z,64.18
2022-12-23T04:35:06.754Z,64.23
2022-12-23T04:36:10.998Z,63.84
2022-12-23T04:37:15.239Z,64.12
2022-12-23T04:38:19.457Z,64.17
2022-12-23T04:39:23.684Z,64.18
2022-12-23T04:40:27.919Z,63.82
2022-12-23T04:41:32.193Z,64.12
2022-12-23T04:42:36.417Z,64.2
2022-12-23T04:43:40.639Z,64.36
2022-12-23T04:44:45.275Z,64.2
2022-12-23T04:45:49.548Z,63.92
2022-12-23T04:46:53.936Z,64.25
2022-12-23T04:47:58.234Z,63.57
2022-12-23T04:49:02.484Z,64.46
2022-12-23T04:50:06.746Z,63.15
2022-12-23T04:51:10.992Z,63.93
2022-12-23T04:52:15.246Z,63.45
2022-12-23T04:53:19.462Z,64.29
2022-12-23T04:54:23.664Z,63.43
2022-12-23T04:55:27.892Z,63.79
2022-12-23T04:56:32.134Z,63.54
2022-12-23T04:57:36.380Z,64.08
2022-12-23T04:58:40.639Z,63.35
2022-12-23T04:59:44.858Z,63.7
2022-12-23T05:00:49.321Z,64.2
2022-12-23T05:01:54.352Z,63.75
2022-12-23T05:02:59.044Z,64.18
2022-12-23T05:04:03.509Z,64.03
2022-12-23T05:05:07.727Z,63.99
2022-12-23T05:06:11.966Z,63.56
2022-12-23T05:07:16.200Z,63.03
2022-12-23T05:08:20.464Z,63.53
2022-12-23T05:09:24.694Z,63.71
2022-12-23T05:10:28.946Z,63.44
2022-12-23T05:11:42.016Z,63.12
2022-12-23T05:12:46.537Z,62.69
2022-12-23T05:13:50.782Z,62.34
2022-12-23T05:14:55.017Z,61.99
2022-12-23T05:15:59.408Z,61.73
2022-12-23T05:17:09.306Z,61.48
2022-12-23T05:18:13.563Z,61.32
2022-12-23T05:19:17.793Z,61.16
2022-12-23T05:20:22.007Z,61.14
2022-12-23T05:21:26.274Z,61.01
2022-12-23T05:22:30.629Z,60.9
2022-12-23T05:23:34.875Z,60.93
2022-12-23T05:24:39.161Z,60.79
2022-12-23T05:25:43.376Z,60.75
2022-12-23T05:26:59.616Z,60.71
2022-12-23T05:28:04.420Z,60.65
2022-12-23T05:29:08.631Z,60.64
2022-12-23T05:30:12.886Z,60.52
2022-12-23T05:31:17.289Z,60.58
2022-12-23T05:32:21.594Z,60.54
2022-12-23T05:33:28.315Z,60.48
2022-12-23T05:34:32.582Z,60.38
2022-12-23T05:35:36.795Z,60.41
2022-12-23T05:36:41.010Z,60.36
2022-12-23T05:37:45.283Z,60.35
2022-12-23T05:38:49.564Z,60.25
2022-12-23T05:39:53.804Z,60.24
2022-12-23T05:40:58.035Z,60.38
2022-12-23T05:42:02.272Z,60.34
2022-12-23T05:43:06.581Z,60.32
2022-12-23T05:44:10.796Z,60.22
2022-12-23T05:45:15.051Z,60.26
2022-12-23T05:46:28.776Z,60.14
2022-12-23T05:47:33.022Z,60.17
2022-12-23T05:48:37.296Z,60.2
2022-12-23T05:49:41.511Z,60.13
2022-12-23T05:50:45.883Z,60.24
2022-12-23T05:51:50.111Z,60.18
2022-12-23T05:52:54.351Z,60.12
2022-12-23T05:53:58.591Z,60.25
2022-12-23T05:55:02.844Z,60.06
2022-12-23T05:56:07.083Z,60.05
2022-12-23T05:57:11.321Z,60.02
2022-12-23T05:58:15.553Z,60
2022-12-23T05:59:19.761Z,60
2022-12-23T06:00:24.011Z,60.04
2022-12-23T06:01:28.465Z,59.93
2022-12-23T06:02:33.583Z,60.01
2022-12-23T06:03:38.606Z,59.91
2022-12-23T06:04:42.866Z,60.05
2022-12-23T06:05:47.095Z,60.03
2022-12-23T06:06:51.359Z,59.91
2022-12-23T06:07:55.599Z,59.9
2022-12-23T06:09:02.185Z,59.97
2022-12-23T06:10:06.413Z,59.89
2022-12-23T06:11:10.615Z,59.88
2022-12-23T06:12:14.866Z,59.83
2022-12-23T06:13:19.121Z,59.92
2022-12-23T06:14:30.511Z,59.93
2022-12-23T06:15:34.762Z,59.98
2022-12-23T06:16:39.245Z,59.9
2022-12-23T06:17:43.562Z,59.93
2022-12-23T06:18:47.810Z,59.97
2022-12-23T06:19:53.077Z,60.02
2022-12-23T06:20:57.314Z,60.11
2022-12-23T06:22:01.547Z,60.09
2022-12-23T06:23:05.808Z,60.2
2022-12-23T06:24:10.043Z,60.37
2022-12-23T06:25:14.295Z,60.34
2022-12-23T06:26:18.535Z,60.39
2022-12-23T06:27:22.747Z,60.6
2022-12-23T06:28:26.961Z,60.51
2022-12-23T06:29:31.263Z,60.58
2022-12-23T06:30:35.534Z,60.7
2022-12-23T06:31:39.984Z,60.76
2022-12-23T06:32:44.252Z,60.74
2022-12-23T06:33:48.502Z,60.91
2022-12-23T06:34:52.778Z,60.92
2022-12-23T06:35:57.329Z,60.92
2022-12-23T06:37:01.524Z,60.94
2022-12-23T06:38:13.400Z,60.96
2022-12-23T06:39:17.655Z,61.11
2022-12-23T06:40:21.903Z,61.09
2022-12-23T06:41:26.132Z,61.09
2022-12-23T06:42:30.390Z,61.2
2022-12-23T06:43:34.593Z,61.11
2022-12-23T06:44:38.826Z,61.02
2022-12-23T06:45:43.264Z,60.94
2022-12-23T06:46:47.549Z,60.76
2022-12-23T06:47:51.763Z,60.64
2022-12-23T06:48:55.986Z,60.61
2022-12-23T06:50:00.223Z,60.37
2022-12-23T06:51:06.937Z,60.37
2022-12-23T06:52:11.157Z,60.19
2022-12-23T06:53:15.393Z,60.05
2022-12-23T06:54:19.613Z,60.08
2022-12-23T06:55:23.825Z,59.94
2022-12-23T06:56:28.063Z,60.07
2022-12-23T06:57:32.285Z,59.97
2022-12-23T06:58:36.524Z,60.11
2022-12-23T06:59:40.752Z,60.2
2022-12-23T07:00:44.981Z,60.2
2022-12-23T07:01:49.547Z,60.3
2022-12-23T07:02:54.509Z,60.35
2022-12-23T07:03:58.847Z,60.48
2022-12-23T07:05:04.112Z,60.4
2022-12-23T07:06:09.374Z,60.63
2022-12-23T07:07:13.624Z,60.66
2022-12-23T07:08:17.832Z,60.69
2022-12-23T07:09:22.061Z,60.68
2022-12-23T07:10:26.267Z,60.81
2022-12-23T07:11:30.491Z,60.82
2022-12-23T07:12:34.705Z,60.89
2022-12-23T07:13:38.945Z,60.77
2022-12-23T07:14:43.264Z,61.07
2022-12-23T07:15:47.485Z,60.73
2022-12-23T07:16:52.265Z,60.91
2022-12-23T07:17:56.548Z,61.01
2022-12-23T07:19:00.760Z,61.02
2022-12-23T07:20:04.967Z,60.91
2022-12-23T07:21:29.663Z,60.75
2022-12-23T07:22:34.301Z,60.6
2022-12-23T07:23:38.534Z,60.7
2022-12-23T07:24:42.765Z,60.71
2022-12-23T07:25:47.010Z,60.69
2022-12-23T07:26:51.264Z,60.81
2022-12-23T07:27:55.465Z,60.87
2022-12-23T07:28:59.700Z,60.99
2022-12-23T07:30:03.903Z,60.9
2022-12-23T07:31:08.374Z,60.67
2022-12-23T07:32:12.932Z,60.6
2022-12-23T07:33:17.162Z,60.47
2022-12-23T07:34:21.419Z,60.47
2022-12-23T07:35:25.624Z,60.26
2022-12-23T07:36:29.871Z,60.13
2022-12-23T07:37:34.157Z,60.05
2022-12-23T07:38:38.372Z,59.84
2022-12-23T07:39:42.613Z,59.93
2022-12-23T07:40:46.871Z,60.07
2022-12-23T07:44:00.309Z,59.94
2022-12-23T07:45:04.555Z,60.11
2022-12-23T07:46:09.058Z,60.22
2022-12-23T07:47:13.358Z,60.26
2022-12-23T07:48:17.637Z,60.11
2022-12-23T07:49:21.850Z,60.09
2022-12-23T07:50:26.047Z,60.29
2022-12-23T07:51:30.336Z,60.4
2022-12-23T07:52:34.556Z,60.43
2022-12-23T07:53:38.850Z,60.47
2022-12-23T07:54:43.074Z,60.36
2022-12-23T07:55:56.515Z,60.47
2022-12-23T07:57:01.117Z,60.49
2022-12-23T07:58:05.359Z,60.48
2022-12-23T07:59:09.587Z,60.42
2022-12-23T08:00:13.850Z,60.38
2022-12-23T08:01:18.492Z,60.32
2022-12-23T08:02:23.498Z,60.62
2022-12-23T08:03:28.067Z,60.58
2022-12-23T08:04:32.493Z,61.02
2022-12-23T08:05:36.770Z,61.03
2022-12-23T08:06:40.985Z,61.04
2022-12-23T08:07:45.221Z,60.95
2022-12-23T08:08:49.454Z,60.97
2022-12-23T08:09:53.718Z,60.98
2022-12-23T08:10:57.939Z,60.91
2022-12-23T08:12:02.385Z,61.06
2022-12-23T08:13:06.659Z,60.85
2022-12-23T08:14:10.858Z,60.92
2022-12-23T08:15:17.419Z,60.91
2022-12-23T08:16:22.005Z,61.33
2022-12-23T08:17:26.456Z,61.36
2022-12-23T08:18:30.722Z,61.34
2022-12-23T08:19:34.953Z,61.19
2022-12-23T08:20:39.181Z,61.22
2022-12-23T08:21:43.418Z,60.99
2022-12-23T08:22:47.675Z,61.4
2022-12-23T08:23:51.920Z,60.46
2022-12-23T08:24:56.175Z,60.13
2022-12-23T08:26:00.390Z,60.02
2022-12-23T08:27:04.588Z,59.95
2022-12-23T08:28:08.789Z,59.11
2022-12-23T08:29:13.023Z,59.29
2022-12-23T08:30:17.272Z,58.37
2022-12-23T08:31:21.807Z,58.31
2022-12-23T08:32:28.698Z,58.39
2022-12-23T08:33:33.013Z,58.17
2022-12-23T08:34:37.322Z,58.3
2022-12-23T08:35:41.620Z,58.12
2022-12-23T08:36:45.884Z,57.9
2022-12-23T08:37:50.112Z,57.68
2022-12-23T08:38:54.660Z,57.5
2022-12-23T08:39:58.922Z,57.28
2022-12-23T08:41:03.223Z,57.18
2022-12-23T08:42:07.740Z,57.14
2022-12-23T08:43:12.297Z,57.16
2022-12-23T08:44:16.578Z,57.22
2022-12-23T08:45:20.843Z,57.25
2022-12-23T08:46:25.330Z,57.34
2022-12-23T08:47:29.634Z,57.52
2022-12-23T08:48:33.908Z,58.13
2022-12-23T08:49:38.152Z,57.88
2022-12-23T08:50:42.387Z,57.91
2022-12-23T08:51:46.614Z,57.91
2022-12-23T08:52:50.855Z,57.97
2022-12-23T08:54:02.635Z,57.88
2022-12-23T08:55:06.892Z,58.06
2022-12-23T08:56:11.092Z,58.08
2022-12-23T08:57:15.309Z,58.18
2022-12-23T08:58:19.521Z,58.27
2022-12-23T08:59:23.779Z,58.23
2022-12-23T09:00:28.004Z,58.33
2022-12-23T09:01:32.944Z,58.44
2022-12-23T09:02:38.048Z,58.45
2022-12-23T09:03:42.482Z,58.5
2022-12-23T09:04:46.784Z,58.64
2022-12-23T09:05:51.144Z,58.64
2022-12-23T09:06:55.425Z,58.55
2022-12-23T09:07:59.665Z,58.44
2022-12-23T09:09:03.919Z,58.57
2022-12-23T09:10:08.130Z,58.59
2022-12-23T09:11:12.333Z,58.5
2022-12-23T09:12:16.563Z,58.56
2022-12-23T09:13:36.858Z,58.57
2022-12-23T09:14:41.108Z,58.74
2022-12-23T09:15:45.668Z,58.84
2022-12-23T09:16:49.896Z,58.8
2022-12-23T09:17:55.154Z,58.96
2022-12-23T09:18:59.410Z,58.93
2022-12-23T09:20:03.720Z,58.99
2022-12-23T09:21:08.966Z,59.32
2022-12-23T09:22:13.197Z,59.66
2022-12-23T09:23:17.423Z,59.48
2022-12-23T09:24:21.668Z,59.39
2022-12-23T09:25:25.903Z,59.67
2022-12-23T09:26:30.191Z,59.63
2022-12-23T09:27:34.431Z,59.58
2022-12-23T09:28:38.908Z,59.94
2022-12-23T09:29:43.128Z,59.68
2022-12-23T09:30:47.503Z,59.92
2022-12-23T09:31:52.015Z,60.08
2022-12-23T09:32:56.403Z,60.1
2022-12-23T09:34:00.701Z,60.28
2022-12-23T09:35:04.935Z,60.42
2022-12-23T09:36:09.258Z,60.4
2022-12-23T09:37:13.500Z,60.45
2022-12-23T09:38:17.776Z,60.52
2022-12-23T09:39:22.014Z,60.34
2022-12-23T09:40:26.243Z,60.68
2022-12-23T09:41:30.534Z,60.57
2022-12-23T09:42:34.783Z,60.38
2022-12-23T09:43:39.101Z,60.33
2022-12-23T09:44:43.389Z,60.34
2022-12-23T09:45:47.626Z,60.56
2022-12-23T09:46:52.188Z,60.21
2022-12-23T09:47:56.463Z,60.71
2022-12-23T09:49:00.707Z,60.68
2022-12-23T09:50:04.963Z,60.69
2022-12-23T09:51:09.221Z,60.59
2022-12-23T09:52:13.434Z,61.04
2022-12-23T09:53:17.692Z,61.14
2022-12-23T09:54:21.965Z,60.79
2022-12-23T09:55:26.209Z,60.67
2022-12-23T09:56:30.431Z,60.52
2022-12-23T09:57:34.685Z,60.39
2022-12-23T09:58:38.905Z,60.23
2022-12-23T09:59:43.151Z,60.35
2022-12-23T10:00:47.503Z,60.32
2022-12-23T10:01:52.112Z,60.35
2022-12-23T10:02:57.324Z,60.59
2022-12-23T10:04:01.989Z,60.61
2022-12-23T10:05:06.241Z,60.7
2022-12-23T10:06:10.512Z,60.84
2022-12-23T10:07:14.747Z,60.96
2022-12-23T10:08:18.967Z,60.98
2022-12-23T10:09:25.471Z,61.02
2022-12-23T10:10:29.734Z,60.92
2022-12-23T10:11:33.976Z,60.79
2022-12-23T10:12:42.292Z,61.02
2022-12-23T10:13:46.542Z,60.98
2022-12-23T10:14:50.776Z,60.82
2022-12-23T10:15:55.266Z,60.7
2022-12-23T10:16:59.545Z,60.94
2022-12-23T10:18:03.771Z,60.61
2022-12-23T10:19:08.054Z,61.06
2022-12-23T10:20:12.280Z,61.23
2022-12-23T10:21:16.510Z,60.94
2022-12-23T10:22:20.810Z,61.08
2022-12-23T10:23:25.041Z,60.99
2022-12-23T10:24:29.258Z,61.07
2022-12-23T10:25:33.516Z,60.89
2022-12-23T10:26:37.722Z,60.95
2022-12-23T10:27:42.045Z,60.82
2022-12-23T10:28:46.288Z,61
2022-12-23T10:29:50.503Z,60.86
2022-12-23T10:31:41.907Z,60.79
2022-12-23T10:32:46.590Z,60.94
2022-12-23T10:33:50.873Z,61.28
2022-12-23T10:34:55.218Z,61.21
2022-12-23T10:35:59.661Z,61.2
2022-12-23T10:37:04.211Z,60.83
2022-12-23T10:38:08.542Z,60.97
2022-12-23T10:39:12.847Z,61.07
2022-12-23T10:40:17.179Z,61.09
2022-12-23T10:41:21.509Z,61.23
2022-12-23T10:42:25.755Z,61.15
2022-12-23T10:43:30.205Z,61.13
2022-12-23T10:44:34.453Z,61.29
2022-12-23T10:45:39.385Z,61.22
2022-12-23T10:46:44.013Z,61.33
2022-12-23T10:47:49.009Z,61.1
2022-12-23T10:48:53.548Z,61.26
2022-12-23T10:49:57.775Z,61.17
2022-12-23T10:51:02.113Z,61.19
2022-12-23T10:52:06.345Z,61.05
2022-12-23T10:53:10.571Z,61.21
2022-12-23T10:54:14.860Z,61.06
2022-12-23T10:55:19.084Z,60.98
2022-12-23T10:56:26.443Z,61.32
2022-12-23T10:57:30.695Z,61.25
2022-12-23T10:58:35.147Z,61.21
2022-12-23T10:59:39.377Z,61.24
2022-12-23T11:00:43.816Z,60.9
2022-12-23T11:01:49.258Z,61.06
2022-12-23T11:02:57.403Z,61.09
2022-12-23T11:04:01.698Z,60.94
2022-12-23T11:05:05.934Z,60.93
2022-12-23T11:06:10.201Z,60.84
2022-12-23T11:07:46.947Z,60.81
2022-12-23T11:08:51.322Z,60.73
2022-12-23T11:09:55.548Z,60.68
2022-12-23T11:10:59.789Z,60.83
2022-12-23T11:12:04.309Z,61.07
2022-12-23T11:13:08.598Z,60.78
2022-12-23T11:14:12.833Z,61.17
2022-12-23T11:15:17.079Z,61.51
2022-12-23T11:16:21.586Z,60.91
2022-12-23T11:17:25.948Z,60.49
2022-12-23T11:18:30.182Z,60.34
2022-12-23T11:19:34.409Z,60.21
2022-12-23T11:20:38.626Z,60.08
2022-12-23T11:21:43.126Z,60.11
2022-12-23T11:22:47.345Z,60.07
2022-12-23T11:23:52.198Z,59.81
2022-12-23T11:24:56.760Z,59.98
2022-12-23T11:26:01.143Z,60.12
2022-12-23T11:27:05.360Z,60.11
2022-12-23T11:28:09.713Z,59.92
2022-12-23T11:29:13.911Z,60.08
2022-12-23T11:30:18.158Z,60.03
2022-12-23T11:31:22.611Z,59.75
2022-12-23T11:32:29.147Z,59.85
2022-12-23T11:33:33.375Z,59.71
2022-12-23T11:34:38.552Z,60.09
2022-12-23T11:35:43.434Z,60.29
2022-12-23T11:37:03.535Z,60.7
2022-12-23T11:38:09.743Z,60.78
2022-12-23T11:39:13.994Z,61.02
2022-12-23T11:40:18.195Z,61.2
2022-12-23T11:41:22.414Z,61.24
2022-12-23T11:42:26.638Z,60.81
2022-12-23T11:43:30.971Z,60.68
2022-12-23T11:44:35.192Z,60.84
2022-12-23T11:45:39.605Z,60.84
2022-12-23T11:46:43.932Z,60.64
2022-12-23T11:47:48.182Z,60.77
2022-12-23T11:48:56.844Z,61.05
2022-12-23T11:50:01.116Z,61.01
2022-12-23T11:51:05.386Z,61.33
2022-12-23T11:52:09.845Z,61.32
2022-12-23T11:53:14.246Z,61.33
2022-12-23T11:54:18.520Z,61.28
2022-12-23T11:55:22.759Z,61.34
2022-12-23T11:56:27.304Z,61.27
2022-12-23T11:57:31.583Z,60.87
2022-12-23T11:58:35.816Z,61.33
2022-12-23T11:59:40.072Z,61.08
2022-12-23T12:00:44.314Z,61.31
2022-12-23T12:01:49.153Z,61.12
2022-12-23T12:02:55.060Z,61.49
2022-12-23T12:03:59.611Z,61.25
2022-12-23T12:05:03.886Z,61.1
2022-12-23T12:06:08.180Z,61.51
2022-12-23T12:07:12.421Z,61.59
2022-12-23T12:08:16.722Z,61.66
2022-12-23T12:09:20.975Z,61.79
2022-12-23T12:10:25.270Z,61.84
2022-12-23T12:11:29.498Z,61.82
2022-12-23T12:12:33.721Z,61.67
2022-12-23T12:13:38.724Z,62.09
2022-12-23T12:14:43.364Z,61.85
2022-12-23T12:15:47.648Z,62.15
2022-12-23T12:16:53.479Z,62.27
2022-12-23T12:17:57.757Z,62.66
2022-12-23T12:19:01.975Z,61.78
2022-12-23T12:20:06.211Z,62.26
2022-12-23T12:21:10.463Z,62
2022-12-23T12:22:14.753Z,62
2022-12-23T12:23:19.038Z,61.83
2022-12-23T12:24:23.265Z,61.65
2022-12-23T12:25:27.476Z,61.84
2022-12-23T12:26:31.727Z,61.81
2022-12-23T12:27:35.996Z,61.47
2022-12-23T12:28:41.067Z,61.64
2022-12-23T12:29:45.297Z,61.42
2022-12-23T12:30:50.147Z,61.26
2022-12-23T12:31:54.416Z,61.58
2022-12-23T12:32:58.653Z,61.09
2022-12-23T12:34:02.894Z,61.01
2022-12-23T12:35:07.151Z,61.23
2022-12-23T12:36:11.523Z,61.47
2022-12-23T12:37:15.781Z,61.31
2022-12-23T12:38:20.031Z,61.18
2022-12-23T12:39:27.523Z,61.06
2022-12-23T12:40:31.753Z,60.97
2022-12-23T12:41:35.995Z,60.73
2022-12-23T12:42:40.254Z,60.66
2022-12-23T12:43:44.523Z,60.58
2022-12-23T12:44:48.946Z,60.66
2022-12-23T12:45:53.553Z,60.66
2022-12-23T12:46:57.836Z,60.54
2022-12-23T12:48:19.285Z,60.69
2022-12-23T12:49:26.688Z,60.62
2022-12-23T12:50:31.073Z,60.48
2022-12-23T12:51:35.315Z,60.4
2022-12-23T12:52:39.544Z,60.52
2022-12-23T12:53:43.769Z,60.48
2022-12-23T12:54:49.030Z,60.63
2022-12-23T12:55:54.366Z,60.6
2022-12-23T12:56:58.651Z,60.55
2022-12-23T12:58:02.908Z,60.54
2022-12-23T12:59:07.132Z,60.54
2022-12-23T13:00:11.481Z,60.56
2022-12-23T13:01:15.831Z,60.43
2022-12-23T13:02:20.323Z,60.51
2022-12-23T13:03:24.821Z,60.64
2022-12-23T13:04:29.353Z,60.33
2022-12-23T13:05:33.600Z,60.7
2022-12-23T13:06:38.668Z,60.66
2022-12-23T13:07:43.324Z,60.5
2022-12-23T13:08:47.521Z,60.39
2022-12-23T13:09:51.747Z,60.57
2022-12-23T13:10:55.974Z,60.58
2022-12-23T13:12:00.176Z,60.59
2022-12-23T13:13:04.388Z,60.63
2022-12-23T13:14:08.747Z,60.59
2022-12-23T13:15:12.971Z,60.49
2022-12-23T13:16:17.556Z,60.26
2022-12-23T13:17:22.005Z,60.36
2022-12-23T13:18:26.243Z,60.35
2022-12-23T13:19:30.574Z,60.27
2022-12-23T13:20:34.780Z,60.31
2022-12-23T13:21:39.082Z,60.39
2022-12-23T13:22:43.317Z,60.43
2022-12-23T13:23:47.709Z,60.33
2022-12-23T13:24:51.970Z,60.51
2022-12-23T13:25:56.846Z,60.65
2022-12-23T13:27:01.090Z,60.44
2022-12-23T13:28:05.321Z,60.47
2022-12-23T13:29:09.556Z,60.32
2022-12-23T13:30:16.034Z,60.32
2022-12-23T13:31:20.427Z,60.7
2022-12-23T13:32:24.742Z,60.51
2022-12-23T13:33:28.984Z,60.13
2022-12-23T13:34:33.185Z,60.43
2022-12-23T13:35:37.906Z,60.34
2022-12-23T13:36:43.573Z,60.17
2022-12-23T13:37:47.833Z,60.18
2022-12-23T13:38:52.106Z,60.42
2022-12-23T13:39:56.855Z,60.31
2022-12-23T13:41:01.119Z,60.2
2022-12-23T13:42:08.097Z,60.02
2022-12-23T13:43:12.328Z,60.33
2022-12-23T13:44:16.557Z,60.4
2022-12-23T13:45:20.826Z,60.42
2022-12-23T13:46:25.389Z,60.85
2022-12-23T13:47:29.713Z,60.34
2022-12-23T13:48:33.945Z,60.2
2022-12-23T13:49:38.931Z,60.43
2022-12-23T13:50:43.298Z,60.37
2022-12-23T13:51:47.579Z,60.74
2022-12-23T13:52:52.524Z,60.51
2022-12-23T13:54:05.984Z,60.06
2022-12-23T13:55:10.197Z,59.83
2022-12-23T13:56:14.490Z,59.62
2022-12-23T13:57:18.713Z,59.43
2022-12-23T13:58:22.940Z,59.32
2022-12-23T13:59:27.215Z,59.25